Time;durP1;ratioP1;P1;durP2;ratioP2;P2;SDS_P1;SDS_P2;PMS_P1;PMS_P2;Temp;Humidity;BMP_temperature;BMP_pressure;BME280_temperature;BME280_humidity;BME280_pressure;Samples;Min_cycle;Max_cycle;Signal;HPM_P1;HPM_P2
2024/01/25 00:02:10;;;;;;;12.20;2.60;;;;;;;6.85;84.60;100358.98;105469;1253;72207;-54
2024/01/25 00:04:38;;;;;;;19.50;3.30;;;;;;;6.88;84.85;100371.58;105474;1253;69179;-51
2024/01/25 00:07:10;;;;;;;12.60;2.50;;;;;;;6.95;84.54;100373.52;105577;1257;69135;-53
2024/01/25 00:09:38;;;;;;;9.80;2.40;;;;;;;7.02;84.25;100384.13;105480;1253;74268;-56
2024/01/25 00:12:06;;;;;;;15.20;3.20;;;;;;;7.08;83.99;100384.34;105433;1256;81627;-55
2024/01/25 00:14:34;;;;;;;13.10;3.10;;;;;;;7.11;83.65;100388.09;105510;1253;70991;-54
2024/01/25 00:17:03;;;;;;;14.50;2.60;;;;;;;7.13;83.73;100396.73;105452;1254;70382;-54
2024/01/25 00:19:33;;;;;;;14.30;2.60;;;;;;;7.13;83.80;100393.80;105539;1255;69203;-56
2024/01/25 00:22:02;;;;;;;17.70;3.20;;;;;;;7.10;83.47;100390.55;105507;1253;72473;-54
2024/01/25 00:24:30;;;;;;;16.90;3.00;;;;;;;7.10;83.43;100392.29;105508;1255;81903;-56
2024/01/25 00:26:59;;;;;;;13.20;3.10;;;;;;;7.11;83.32;100396.77;105487;1252;72657;-52
2024/01/25 00:29:27;;;;;;;14.50;3.30;;;;;;;7.12;83.25;100399.70;105493;1252;69141;-55
2024/01/25 00:31:55;;;;;;;15.40;3.20;;;;;;;7.14;83.15;100396.71;105512;1255;69210;-55
2024/01/25 00:34:24;;;;;;;15.90;3.50;;;;;;;7.14;83.10;100397.23;105518;1253;72677;-55
2024/01/25 00:36:54;;;;;;;17.00;3.70;;;;;;;7.14;83.05;100393.58;105573;1254;83101;-55
2024/01/25 00:39:22;;;;;;;11.50;2.60;;;;;;;7.13;82.96;100398.11;105510;1258;73022;-54
2024/01/25 00:41:51;;;;;;;10.80;2.90;;;;;;;7.13;83.05;100398.14;105575;1253;69135;-53
2024/01/25 00:44:20;;;;;;;14.80;2.50;;;;;;;7.12;83.13;100408.05;105502;1253;69213;-57
2024/01/25 00:46:48;;;;;;;13.50;3.00;;;;;;;7.11;83.00;100405.98;105543;1253;73206;-54
2024/01/25 00:49:17;;;;;;;10.60;2.70;;;;;;;7.08;82.81;100401.36;105559;1253;80674;-54
2024/01/25 00:51:47;;;;;;;14.10;2.90;;;;;;;7.08;82.69;100399.48;105516;1254;72084;-56
2024/01/25 00:54:17;;;;;;;13.40;3.00;;;;;;;7.07;82.23;100404.86;105643;1256;69315;-56
2024/01/25 00:56:48;;;;;;;14.00;2.80;;;;;;;7.08;82.31;100400.69;105622;1252;69191;-56
2024/01/25 00:59:17;;;;;;;12.20;2.60;;;;;;;7.09;82.23;100402.89;105599;1253;73875;-56
2024/01/25 01:01:48;;;;;;;17.20;2.90;;;;;;;7.10;82.02;100403.40;105746;1256;82080;-55
2024/01/25 01:04:17;;;;;;;12.50;2.70;;;;;;;7.12;81.95;100398.66;105517;1256;72164;-55
2024/01/25 01:06:47;;;;;;;12.50;2.80;;;;;;;7.12;81.63;100407.52;105517;1255;69308;-55
2024/01/25 01:09:17;;;;;;;18.70;3.00;;;;;;;7.16;81.51;100399.80;105483;1253;69157;-54
2024/01/25 01:11:46;;;;;;;19.80;3.00;;;;;;;7.19;81.22;100394.19;105525;1253;73782;-54
2024/01/25 01:14:14;;;;;;;16.60;2.80;;;;;;;7.20;80.97;100398.67;105477;1253;82077;-53
2024/01/25 01:16:43;;;;;;;14.50;3.90;;;;;;;7.19;81.09;100395.73;105478;1255;72969;-55
2024/01/25 01:19:11;;;;;;;19.30;2.50;;;;;;;7.21;80.44;100391.87;105446;1255;69067;-56
2024/01/25 01:21:43;;;;;;;13.70;2.60;;;;;;;7.22;80.47;100398.09;105475;1255;69542;-55
2024/01/25 01:24:12;;;;;;;18.90;2.90;;;;;;;7.23;80.04;100395.30;105519;1255;71589;-55
2024/01/25 01:26:41;;;;;;;14.20;2.70;;;;;;;7.25;79.55;100403.23;105626;1253;80970;-55
2024/01/25 01:29:10;;;;;;;11.40;2.20;;;;;;;7.28;79.40;100399.86;105586;1253;70883;-55
2024/01/25 01:31:38;;;;;;;10.80;2.30;;;;;;;7.29;79.32;100400.02;105459;1255;69121;-55
2024/01/25 01:34:06;;;;;;;13.90;2.40;;;;;;;7.28;78.99;100406.11;105476;1255;69206;-56
2024/01/25 01:36:34;;;;;;;16.30;2.40;;;;;;;7.29;78.90;100406.79;105530;1253;74243;-55
2024/01/25 01:39:03;;;;;;;12.50;2.20;;;;;;;7.30;78.16;100416.70;105470;1257;81951;-55
2024/01/25 01:41:31;;;;;;;13.20;2.70;;;;;;;7.32;78.11;100412.80;105437;1253;72450;-53
2024/01/25 01:44:00;;;;;;;14.30;3.10;;;;;;;7.31;77.91;100412.29;105502;1253;69223;-55
2024/01/25 01:46:36;;;;;;;13.40;2.60;;;;;;;7.31;77.62;100410.58;105547;1253;69289;-56
2024/01/25 01:49:04;;;;;;;11.40;2.30;;;;;;;7.31;76.63;100417.68;105486;1257;71722;-55
2024/01/25 01:51:35;;;;;;;11.90;2.30;;;;;;;7.31;77.16;100415.42;105585;1255;81686;-54
2024/01/25 01:54:06;;;;;;;14.10;2.50;;;;;;;7.28;77.43;100415.16;105518;1255;70833;-54
2024/01/25 01:56:35;;;;;;;12.20;2.70;;;;;;;7.26;77.28;100413.98;105532;1253;69077;-56
2024/01/25 01:59:05;;;;;;;15.90;3.10;;;;;;;7.24;77.01;100409.69;105555;1253;69183;-55
2024/01/25 02:01:33;;;;;;;12.80;2.20;;;;;;;7.24;76.72;100405.88;105586;1252;74125;-54
2024/01/25 02:04:01;;;;;;;12.10;2.50;;;;;;;7.25;76.24;100409.67;105518;1255;82972;-56
2024/01/25 02:06:30;;;;;;;12.10;3.20;;;;;;;7.26;76.58;100405.65;105437;1252;71949;-55
2024/01/25 02:09:00;;;;;;;9.60;2.50;;;;;;;7.24;76.09;100406.39;105549;1253;69785;-53
2024/01/25 02:11:29;;;;;;;16.90;3.00;;;;;;;7.23;76.46;100407.64;105564;1252;69063;-56
2024/01/25 02:13:57;;;;;;;16.00;3.20;;;;;;;7.19;76.47;100403.21;105554;1253;72854;-54
2024/01/25 02:16:26;;;;;;;15.40;2.90;;;;;;;7.16;76.18;100409.88;105587;1256;83108;-54
2024/01/25 02:18:57;;;;;;;14.90;2.30;;;;;;;7.15;76.14;100406.60;105432;1253;71972;-55
2024/01/25 02:21:25;;;;;;;15.20;2.60;;;;;;;7.15;76.26;100416.33;105608;1256;69134;-55
2024/01/25 02:23:53;;;;;;;13.90;2.30;;;;;;;7.13;76.48;100420.55;105630;1257;69210;-54
2024/01/25 02:26:22;;;;;;;10.00;2.40;;;;;;;7.11;76.56;100418.16;105456;1253;73203;-53
2024/01/25 02:28:50;;;;;;;12.60;2.00;;;;;;;7.11;76.78;100420.57;105547;1256;81540;-54
2024/01/25 02:31:22;;;;;;;10.60;2.40;;;;;;;7.12;76.74;100424.55;105531;1253;71573;-54
2024/01/25 02:33:50;;;;;;;10.90;2.20;;;;;;;7.12;76.97;100423.70;105495;1253;69173;-57
2024/01/25 02:36:18;;;;;;;12.90;3.10;;;;;;;7.11;76.59;100432.39;105561;1255;69191;-52
2024/01/25 02:38:46;;;;;;;12.30;3.10;;;;;;;7.14;76.50;100438.08;105542;1253;73786;-55
2024/01/25 02:41:15;;;;;;;9.80;2.30;;;;;;;7.15;76.62;100428.33;105451;1255;81658;-55
2024/01/25 02:43:43;;;;;;;12.20;2.40;;;;;;;7.15;76.74;100432.14;105450;1253;72308;-56
2024/01/25 02:46:11;;;;;;;13.10;2.90;;;;;;;7.15;76.92;100431.79;105590;1253;69153;-56
2024/01/25 02:48:40;;;;;;;9.90;2.90;;;;;;;7.15;76.80;100431.96;105502;1255;69205;-57
2024/01/25 02:51:08;;;;;;;11.30;3.70;;;;;;;7.16;76.62;100431.59;105492;1253;74201;-54
2024/01/25 02:53:36;;;;;;;12.70;3.10;;;;;;;7.17;76.71;100428.61;105552;1253;81782;-55
2024/01/25 02:56:05;;;;;;;15.10;3.40;;;;;;;7.17;76.59;100434.88;105513;1253;72991;-55
2024/01/25 02:58:33;;;;;;;13.00;2.90;;;;;;;7.17;76.42;100441.67;105515;1253;69087;-55
2024/01/25 03:01:02;;;;;;;12.20;2.30;;;;;;;7.17;76.33;100433.85;105450;1255;69175;-55
2024/01/25 03:03:30;;;;;;;11.30;2.60;;;;;;;7.18;76.42;100443.02;105510;1253;74289;-55
2024/01/25 03:06:00;;;;;;;12.60;2.80;;;;;;;7.18;76.62;100447.55;105507;1255;81809;-54
2024/01/25 03:08:28;;;;;;;9.30;2.70;;;;;;;7.18;76.62;100444.59;105485;1252;72084;-55
2024/01/25 03:10:57;;;;;;;9.30;2.10;;;;;;;7.18;76.68;100437.48;105440;1254;69115;-55
2024/01/25 03:13:25;;;;;;;9.40;2.50;;;;;;;7.16;76.88;100434.38;105512;1255;69197;-56
2024/01/25 03:15:53;;;;;;;12.20;2.50;;;;;;;7.16;76.79;100449.52;105439;1253;72959;-52
2024/01/25 03:18:21;;;;;;;13.60;2.90;;;;;;;7.19;76.83;100440.23;105494;1255;81873;-53
2024/01/25 03:20:51;;;;;;;11.80;2.40;;;;;;;7.21;76.57;100443.66;105431;1253;72418;-52
2024/01/25 03:23:19;;;;;;;9.60;2.50;;;;;;;7.22;76.44;100438.40;105414;1255;70531;-53
2024/01/25 03:25:47;;;;;;;17.10;2.90;;;;;;;7.23;76.42;100435.96;105497;1255;69189;-52
2024/01/25 03:28:16;;;;;;;12.80;3.30;;;;;;;7.21;76.17;100440.01;105532;1253;71818;-53
2024/01/25 03:30:44;;;;;;;16.00;4.10;;;;;;;7.20;76.49;100433.08;105511;1255;81962;-54
2024/01/25 03:33:13;;;;;;;14.00;2.90;;;;;;;7.20;76.45;100433.08;105479;1253;72982;-53
2024/01/25 03:35:41;;;;;;;11.40;2.40;;;;;;;7.20;76.69;100430.29;105508;1253;69068;-55
2024/01/25 03:38:09;;;;;;;12.10;2.80;;;;;;;7.18;76.58;100434.16;105503;1253;69130;-54
2024/01/25 03:40:37;;;;;;;8.30;2.30;;;;;;;7.16;76.61;100432.81;105479;1253;72996;-54
2024/01/25 03:43:06;;;;;;;12.60;2.90;;;;;;;7.13;76.58;100436.51;105469;1258;82669;-52
2024/01/25 03:45:47;;;;;;;12.80;2.40;;;;;;;7.13;76.38;100424.38;105439;1253;71945;-52
2024/01/25 03:48:15;;;;;;;8.50;2.00;;;;;;;7.14;76.53;100429.39;105462;1253;69188;-54
2024/01/25 03:50:44;;;;;;;9.70;2.60;;;;;;;7.14;76.35;100423.12;105609;1255;69085;-54
2024/01/25 03:53:12;;;;;;;14.40;2.60;;;;;;;7.18;75.99;100420.78;105483;1253;72847;-51
2024/01/25 03:55:41;;;;;;;13.20;2.30;;;;;;;7.22;76.31;100417.91;105511;1253;81135;-55
2024/01/25 03:58:09;;;;;;;15.10;3.00;;;;;;;7.22;76.55;100420.16;105525;1255;71706;-55
2024/01/25 04:00:37;;;;;;;13.00;2.60;;;;;;;7.20;76.42;100420.72;105432;1256;69147;-55
2024/01/25 04:03:05;;;;;;;10.60;2.30;;;;;;;7.16;76.37;100425.16;105436;1256;69125;-55
2024/01/25 04:05:34;;;;;;;12.20;2.60;;;;;;;7.12;76.44;100427.01;105490;1253;73246;-55
2024/01/25 04:08:03;;;;;;;13.20;2.70;;;;;;;7.06;76.86;100425.57;105590;1258;82718;-55
2024/01/25 04:10:31;;;;;;;10.30;2.40;;;;;;;7.01;76.83;100414.58;105550;1253;72028;-56
2024/01/25 04:13:00;;;;;;;12.60;2.70;;;;;;;6.96;76.88;100417.43;105623;1255;69812;-57
2024/01/25 04:15:29;;;;;;;13.70;2.60;;;;;;;6.92;77.36;100418.57;105621;1256;69173;-57
2024/01/25 04:17:57;;;;;;;12.60;2.10;;;;;;;6.88;77.62;100411.71;105474;1255;73533;-56
2024/01/25 04:20:26;;;;;;;8.70;2.30;;;;;;;6.85;78.06;100410.21;105491;1256;81797;-57
2024/01/25 04:22:54;;;;;;;12.40;3.50;;;;;;;6.82;78.36;100413.77;105609;1253;73402;-57
2024/01/25 04:25:22;;;;;;;8.50;2.10;;;;;;;6.80;78.44;100415.36;105445;1255;69164;-56
2024/01/25 04:27:51;;;;;;;13.80;2.60;;;;;;;6.78;78.67;100410.55;105508;1255;69309;-55
2024/01/25 04:30:19;;;;;;;14.10;2.70;;;;;;;6.78;78.90;100407.24;105435;1253;73126;-56
2024/01/25 04:32:47;;;;;;;9.00;2.20;;;;;;;6.77;78.94;100405.35;105446;1253;80548;-55
2024/01/25 04:35:16;;;;;;;11.20;2.50;;;;;;;6.75;79.23;100406.96;105495;1253;74033;-54
2024/01/25 04:37:44;;;;;;;12.40;2.40;;;;;;;6.73;79.45;100417.42;105458;1256;69766;-57
2024/01/25 04:40:13;;;;;;;10.20;2.50;;;;;;;6.70;79.63;100417.83;105518;1256;69206;-56
2024/01/25 04:42:41;;;;;;;13.30;2.40;;;;;;;6.68;79.63;100423.77;105475;1253;74373;-57
2024/01/25 04:45:10;;;;;;;12.90;2.80;;;;;;;6.69;79.99;100422.02;105467;1255;81621;-56
2024/01/25 04:47:41;;;;;;;11.70;2.50;;;;;;;6.67;80.14;100421.52;105535;1255;72687;-57
2024/01/25 04:50:09;;;;;;;14.20;2.60;;;;;;;6.61;80.45;100417.66;105441;1255;69123;-54
2024/01/25 04:52:38;;;;;;;11.90;2.30;;;;;;;6.51;80.77;100426.02;105521;1256;69203;-53
2024/01/25 04:55:07;;;;;;;10.70;2.50;;;;;;;6.44;81.24;100429.98;105479;1253;72877;-50
2024/01/25 04:57:35;;;;;;;12.30;2.10;;;;;;;6.39;81.40;100431.29;105502;1253;82989;-51
2024/01/25 05:00:04;;;;;;;13.50;2.60;;;;;;;6.37;81.91;100430.27;105475;1253;73356;-52
2024/01/25 05:02:33;;;;;;;10.60;2.60;;;;;;;6.34;82.04;100427.92;105592;1253;69864;-52
2024/01/25 05:05:01;;;;;;;12.00;2.30;;;;;;;6.30;82.18;100434.76;105615;1255;69942;-50
2024/01/25 05:07:29;;;;;;;10.90;2.30;;;;;;;6.28;82.14;100425.08;105423;1253;73080;-51
2024/01/25 05:09:58;;;;;;;13.60;2.40;;;;;;;6.29;82.22;100422.46;105327;1255;82089;-50
2024/01/25 05:12:26;;;;;;;14.80;2.80;;;;;;;6.30;82.33;100424.71;105473;1253;73035;-51
2024/01/25 05:14:55;;;;;;;13.30;2.90;;;;;;;6.33;82.37;100429.84;107195;1253;69834;-51
2024/01/25 05:17:23;;;;;;;13.90;2.40;;;;;;;6.38;82.51;100429.75;105565;1253;69172;-52
2024/01/25 05:19:51;;;;;;;14.00;2.30;;;;;;;6.43;82.30;100432.95;105392;1255;74141;-50
2024/01/25 05:22:21;;;;;;;10.80;2.00;;;;;;;6.46;82.29;100436.20;105493;1255;82723;-51
2024/01/25 05:24:50;;;;;;;;;;;;;;;6.48;82.18;100435.97;105528;1256;73416;-50
2024/01/25 05:27:19;;;;;;;12.70;3.00;;;;;;;6.51;82.05;100435.41;105443;1258;69857;-51
2024/01/25 05:29:47;;;;;;;16.20;2.90;;;;;;;6.54;81.82;100441.92;105501;1255;69775;-49
2024/01/25 05:32:15;;;;;;;10.80;2.10;;;;;;;6.59;81.89;100441.15;105544;1256;73191;-51
2024/01/25 05:34:43;;;;;;;11.20;2.70;;;;;;;6.60;81.57;100451.37;105555;1256;82595;-50
2024/01/25 05:37:12;;;;;;;12.20;2.60;;;;;;;6.63;81.42;100445.25;105521;1253;73071;-50
2024/01/25 05:39:40;;;;;;;14.00;2.90;;;;;;;6.67;81.23;100459.21;105550;1253;70015;-49
2024/01/25 05:42:08;;;;;;;14.30;2.00;;;;;;;6.71;80.77;100456.70;105573;1256;70015;-49
2024/01/25 05:44:37;;;;;;;11.30;2.40;;;;;;;6.73;80.90;100472.64;105711;1253;73888;-49
2024/01/25 05:47:05;;;;;;;11.60;2.60;;;;;;;6.75;80.66;100478.85;105565;1256;81680;-52
2024/01/25 05:49:33;;;;;;;13.40;3.30;;;;;;;6.77;80.50;100471.02;105600;1253;71660;-51
2024/01/25 05:52:01;;;;;;;11.50;2.30;;;;;;;6.79;80.22;100465.23;105492;1259;69933;-49
2024/01/25 05:54:29;;;;;;;14.50;2.60;;;;;;;6.80;79.74;100462.42;105482;1257;69884;-49
2024/01/25 05:56:58;;;;;;;10.30;2.50;;;;;;;6.84;79.43;100458.68;105561;1254;74598;-48
2024/01/25 05:59:26;;;;;;;12.30;2.60;;;;;;;6.85;79.47;100461.98;105557;1253;82004;-49
2024/01/25 06:01:54;;;;;;;11.90;2.40;;;;;;;6.85;79.15;100466.16;105729;1253;71985;-48
2024/01/25 06:04:23;;;;;;;15.60;2.50;;;;;;;6.87;78.77;100479.30;105576;1254;69945;-49
2024/01/25 06:06:51;;;;;;;9.30;2.40;;;;;;;6.87;78.85;100471.83;105537;1253;69980;-49
2024/01/25 06:09:20;;;;;;;11.20;2.00;;;;;;;6.88;78.66;100476.33;105632;1253;73218;-48
2024/01/25 06:11:48;;;;;;;9.00;2.10;;;;;;;6.87;78.59;100470.10;105498;1259;82856;-48
2024/01/25 06:14:17;;;;;;;11.80;2.30;;;;;;;6.87;78.35;100476.88;105764;1253;72905;-47
2024/01/25 06:16:45;;;;;;;11.20;2.20;;;;;;;6.86;78.36;100474.46;105588;1255;69893;-47
2024/01/25 06:19:14;;;;;;;12.20;2.60;;;;;;;6.85;78.40;100474.65;105650;1255;69997;-48
2024/01/25 06:21:42;;;;;;;11.00;1.90;;;;;;;6.83;78.17;100492.74;105631;1255;74317;-53
2024/01/25 06:24:10;;;;;;;11.90;2.20;;;;;;;6.84;77.75;100492.55;105630;1256;81866;-48
2024/01/25 06:26:38;;;;;;;11.80;2.60;;;;;;;6.84;77.84;100498.11;105540;1253;70941;-48
2024/01/25 06:29:07;;;;;;;12.70;2.40;;;;;;;6.84;77.59;100494.46;105688;1253;69981;-49
2024/01/25 06:31:43;;;;;;;15.00;3.10;;;;;;;6.83;77.52;100505.27;105491;1254;69967;-48
2024/01/25 06:34:12;;;;;;;13.60;2.90;;;;;;;6.83;77.07;100505.95;105611;1254;73228;-50
2024/01/25 06:36:40;;;;;;;15.10;2.60;;;;;;;6.84;77.07;100512.53;105615;1257;83830;-48
2024/01/25 06:39:08;;;;;;;10.00;2.40;;;;;;;6.83;76.81;100514.82;105507;1256;72988;-49
2024/01/25 06:41:37;;;;;;;15.10;2.60;;;;;;;6.83;76.67;100519.66;105740;1258;69947;-48
2024/01/25 06:44:05;;;;;;;13.90;3.00;;;;;;;6.83;76.65;100520.20;105469;1259;70002;-50
2024/01/25 06:46:33;;;;;;;13.10;2.00;;;;;;;6.81;76.75;100529.80;105597;1253;74166;-51
2024/01/25 06:49:02;;;;;;;15.20;3.00;;;;;;;6.79;76.79;100528.79;105510;1259;82033;-48
2024/01/25 06:51:32;;;;;;;14.80;2.70;;;;;;;6.78;76.69;100529.16;105599;1256;72299;-48
2024/01/25 06:54:00;;;;;;;12.10;2.00;;;;;;;6.77;76.50;100535.08;105563;1257;69993;-47
2024/01/25 06:56:29;;;;;;;12.30;2.50;;;;;;;6.78;76.79;100540.10;105560;1257;70029;-48
2024/01/25 06:58:57;;;;;;;13.90;2.40;;;;;;;6.77;76.48;100541.52;105510;1256;73569;-50
2024/01/25 07:01:27;;;;;;;16.70;2.70;;;;;;;6.75;76.58;100551.27;105642;1252;81874;-48
2024/01/25 07:03:56;;;;;;;;;;;;;;;6.75;76.18;100546.77;105606;1253;73196;-48
2024/01/25 07:06:26;;;;;;;10.50;2.70;;;;;;;6.75;76.37;100556.83;105651;1253;69952;-48
2024/01/25 07:08:54;;;;;;;13.50;2.60;;;;;;;6.74;76.43;100559.45;105701;1252;69988;-49
2024/01/25 07:11:23;;;;;;;12.60;2.10;;;;;;;6.72;76.16;100557.06;105728;1253;72854;-48
2024/01/25 07:13:52;;;;;;;12.40;2.50;;;;;;;6.72;76.01;100553.41;105794;1256;81731;-48
2024/01/25 07:16:20;;;;;;;11.50;2.50;;;;;;;6.71;75.88;100574.27;105673;1255;73730;-47
2024/01/25 07:18:49;;;;;;;13.00;2.30;;;;;;;6.70;76.11;100569.25;105894;1255;69927;-49
2024/01/25 07:21:18;;;;;;;11.70;2.80;;;;;;;6.69;75.59;100575.34;105764;1251;69971;-48
2024/01/25 07:23:47;;;;;;;19.90;5.40;;;;;;;6.69;75.91;100578.11;105847;1255;74218;-51
2024/01/25 07:26:18;;;;;;;13.20;2.50;;;;;;;6.70;75.72;100586.95;105717;1252;82146;-50
2024/01/25 07:28:46;;;;;;;11.60;2.40;;;;;;;6.70;75.60;100590.09;105743;1264;71878;-50
2024/01/25 07:31:15;;;;;;;10.60;2.10;;;;;;;6.71;75.65;100591.46;105599;1252;69807;-52
2024/01/25 07:33:43;;;;;;;14.40;2.50;;;;;;;6.72;75.74;100591.63;105675;1253;69987;-48
2024/01/25 07:36:12;;;;;;;15.50;2.50;;;;;;;6.71;75.56;100585.92;105530;1254;72821;-48
2024/01/25 07:38:46;;;;;;;11.00;2.60;;;;;;;6.72;75.72;100596.66;105635;1253;81578;-47
2024/01/25 07:41:15;;;;;;;;;;;;;;;6.70;75.43;100607.09;105642;1251;72282;-48
2024/01/25 07:43:43;;;;;;;17.80;3.20;;;;;;;6.70;75.59;100619.26;105627;1256;70043;-49
2024/01/25 07:46:14;;;;;;;14.40;2.60;;;;;;;6.69;75.65;100622.76;105690;1255;69986;-49
2024/01/25 07:48:43;;;;;;;14.80;3.50;;;;;;;6.70;75.74;100620.29;105812;1256;73500;-48
2024/01/25 07:51:13;;;;;;;14.70;3.40;;;;;;;6.71;75.49;100614.91;105769;1256;81396;-49
2024/01/25 07:53:41;;;;;;;17.40;3.30;;;;;;;6.72;75.45;100610.73;105648;1258;71789;-52
2024/01/25 07:56:10;;;;;;;17.10;3.80;;;;;;;6.75;75.50;100609.11;105609;1259;69937;-50
2024/01/25 07:58:40;;;;;;;19.40;4.10;;;;;;;6.77;75.37;100609.09;105550;1257;70019;-49
2024/01/25 08:01:08;;;;;;;10.30;2.60;;;;;;;6.77;75.51;100613.75;105545;1253;73037;-49
2024/01/25 08:03:37;;;;;;;17.20;3.80;;;;;;;6.78;75.79;100620.15;105581;1256;81918;-55
2024/01/25 08:06:06;;;;;;;13.40;2.90;;;;;;;6.79;75.71;100625.52;105517;1256;71893;-51
2024/01/25 08:08:34;;;;;;;17.10;7.20;;;;;;;6.81;75.62;100631.05;105730;1257;69957;-53
2024/01/25 08:11:04;;;;;;;21.20;8.30;;;;;;;6.83;75.39;100615.73;105806;1257;69971;-50
2024/01/25 08:13:32;;;;;;;21.80;5.10;;;;;;;6.83;75.40;100612.95;105601;1253;75090;-51
2024/01/25 08:16:03;;;;;;;;;;;;;;;6.85;75.57;100621.25;105651;1256;81654;-52
2024/01/25 08:18:31;;;;;;;18.40;4.00;;;;;;;6.87;75.53;100631.81;105754;1252;72191;-54
2024/01/25 08:21:00;;;;;;;13.40;3.00;;;;;;;6.89;75.12;100634.73;105575;1251;69091;-53
2024/01/25 08:23:29;;;;;;;16.40;3.80;;;;;;;6.91;75.18;100642.16;105708;1253;69848;-56
2024/01/25 08:25:57;;;;;;;16.70;3.90;;;;;;;6.91;75.26;100636.24;105641;1256;72958;-54
2024/01/25 08:28:25;;;;;;;17.70;3.70;;;;;;;6.91;75.05;100651.36;105607;1256;82435;-50
2024/01/25 08:30:54;;;;;;;14.30;3.10;;;;;;;6.93;75.29;100651.86;105727;1256;73095;-51
2024/01/25 08:33:24;;;;;;;15.20;3.20;;;;;;;6.95;75.36;100658.77;105591;1252;69059;-51
2024/01/25 08:35:52;;;;;;;11.20;2.20;;;;;;;6.98;75.23;100665.66;105745;1255;69122;-52
2024/01/25 08:38:21;;;;;;;12.70;2.50;;;;;;;6.99;74.84;100665.48;105537;1258;73264;-54
2024/01/25 08:40:49;;;;;;;12.60;2.30;;;;;;;7.02;74.59;100667.16;105519;1254;81471;-52
2024/01/25 08:43:17;;;;;;;14.00;3.50;;;;;;;7.04;74.78;100663.82;105623;1253;71926;-50
2024/01/25 08:45:46;;;;;;;17.70;3.00;;;;;;;7.07;74.43;100664.11;105610;1256;69857;-53
2024/01/25 08:48:14;;;;;;;16.20;2.60;;;;;;;7.10;74.61;100669.43;105791;1256;69913;-55
2024/01/25 08:50:45;;;;;;;12.30;2.80;;;;;;;7.14;74.44;100678.08;105707;1257;72792;-55
2024/01/25 08:53:13;;;;;;;15.10;3.10;;;;;;;7.17;74.57;100683.22;105606;1255;81543;-50
2024/01/25 08:55:41;;;;;;;14.70;3.30;;;;;;;7.21;74.24;100683.14;105641;1262;71291;-49
2024/01/25 08:58:10;;;;;;;16.50;3.00;;;;;;;7.23;74.21;100681.20;105648;1256;69830;-52
2024/01/25 09:00:38;;;;;;;14.00;3.00;;;;;;;7.25;73.97;100685.14;105689;1257;69766;-49
2024/01/25 09:03:07;;;;;;;16.20;3.80;;;;;;;7.28;74.09;100688.58;105786;1257;74164;-53
2024/01/25 09:05:39;;;;;;;13.50;2.70;;;;;;;7.31;74.04;100693.91;105667;1254;82444;-51
2024/01/25 09:08:08;;;;;;;16.40;3.40;;;;;;;7.33;73.37;100699.09;105776;1256;71991;-51
2024/01/25 09:10:37;;;;;;;11.90;3.00;;;;;;;7.37;74.03;100700.40;105658;1258;70033;-50
2024/01/25 09:13:05;;;;;;;16.20;3.40;;;;;;;7.43;74.11;100703.75;105605;1258;69958;-49
2024/01/25 09:15:33;;;;;;;15.60;3.20;;;;;;;7.51;73.78;100690.73;105723;1257;72950;-50
2024/01/25 09:18:02;;;;;;;12.50;3.50;;;;;;;7.60;74.04;100695.09;105616;1257;82108;-49
2024/01/25 09:20:31;;;;;;;14.30;3.30;;;;;;;7.68;73.50;100702.05;105609;1257;71682;-50
2024/01/25 09:22:59;;;;;;;12.70;3.60;;;;;;;7.77;73.46;100704.13;105485;1257;69983;-50
2024/01/25 09:25:27;;;;;;;17.90;3.60;;;;;;;7.85;73.71;100702.05;105566;1257;69911;-51
2024/01/25 09:27:57;;;;;;;18.70;5.30;;;;;;;7.90;73.10;100702.64;105598;1258;74595;-54
2024/01/25 09:30:26;;;;;;;13.50;3.90;;;;;;;8.02;73.63;100702.73;105646;1256;81745;-57
2024/01/25 09:32:55;;;;;;;13.40;3.00;;;;;;;8.05;72.93;100707.71;105591;1255;70529;-55
2024/01/25 09:35:23;;;;;;;16.20;2.90;;;;;;;7.98;72.81;100713.95;105607;1256;69721;-55
2024/01/25 09:37:52;;;;;;;12.20;2.60;;;;;;;7.89;72.64;100716.75;105654;1255;69235;-55
2024/01/25 09:40:21;;;;;;;12.80;4.40;;;;;;;7.79;72.73;100715.23;105633;1251;72793;-55
2024/01/25 09:42:52;;;;;;;16.10;5.50;;;;;;;7.71;72.91;100724.08;105591;1257;82169;-55
2024/01/25 09:45:21;;;;;;;14.90;5.10;;;;;;;7.62;72.80;100730.70;105586;1256;72068;-56
2024/01/25 09:47:49;;;;;;;20.60;4.70;;;;;;;7.53;72.78;100736.61;105627;1264;69180;-56
2024/01/25 09:50:18;;;;;;;25.60;8.90;;;;;;;7.46;72.58;100732.40;105657;1258;69193;-56
2024/01/25 09:52:56;;;;;;;18.10;4.40;;;;;;;7.41;72.62;100733.70;105665;1259;72991;-56
2024/01/25 09:55:26;;;;;;;13.40;3.30;;;;;;;7.38;72.80;100737.41;105606;1256;81630;-54
2024/01/25 09:57:57;;;;;;;;;;;;;;;7.35;72.85;100735.20;105611;1253;71826;-53
2024/01/25 10:00:25;;;;;;;16.80;4.40;;;;;;;7.35;73.11;100736.08;105591;1251;69125;-56
2024/01/25 10:02:56;;;;;;;9.90;3.10;;;;;;;7.34;72.67;100744.44;105597;1255;69196;-56
2024/01/25 10:05:24;;;;;;;14.60;3.40;;;;;;;7.33;72.94;100744.81;105613;1255;73302;-56
2024/01/25 10:07:52;;;;;;;14.70;3.30;;;;;;;7.31;73.01;100748.65;105568;1255;82040;-55
2024/01/25 10:10:21;;;;;;;15.00;4.20;;;;;;;7.32;73.23;100759.42;105541;1257;71608;-54
2024/01/25 10:12:49;;;;;;;15.70;3.90;;;;;;;7.31;72.96;100754.73;105615;1251;69077;-56
2024/01/25 10:15:17;;;;;;;12.70;2.60;;;;;;;7.31;72.85;100758.03;105659;1255;69224;-56
2024/01/25 10:17:46;;;;;;;10.90;3.00;;;;;;;7.32;72.83;100758.04;105665;1256;72775;-56
2024/01/25 10:20:34;;;;;;;16.20;2.40;;;;;;;7.34;72.85;100767.04;105573;1256;81617;-56
2024/01/25 10:23:03;;;;;;;14.50;3.60;;;;;;;7.35;72.81;100770.50;105643;1254;71371;-56
2024/01/25 10:25:35;;;;;;;15.40;4.30;;;;;;;7.35;72.78;100770.50;105616;1264;69190;-56
2024/01/25 10:28:07;;;;;;;19.80;3.80;;;;;;;7.36;72.36;100771.70;105601;1257;69154;-56
2024/01/25 10:30:36;;;;;;;16.80;4.10;;;;;;;7.37;72.30;100782.80;105645;1255;71456;-56
2024/01/25 10:33:04;;;;;;;14.10;3.20;;;;;;;7.39;72.40;100778.23;105612;1257;81854;-54
2024/01/25 10:35:33;;;;;;;17.30;4.90;;;;;;;7.40;72.51;100780.66;105568;1252;72034;-54
2024/01/25 10:38:04;;;;;;;15.70;4.70;;;;;;;7.41;72.39;100771.95;105696;1256;69179;-52
2024/01/25 10:40:32;;;;;;;14.20;3.60;;;;;;;7.44;71.80;100774.85;105643;1255;69177;-54
2024/01/25 10:43:00;;;;;;;13.20;3.60;;;;;;;7.52;72.45;100771.95;105581;1253;73522;-53
2024/01/25 10:45:29;;;;;;;15.80;3.70;;;;;;;7.57;72.28;100773.73;105629;1255;81682;-57
2024/01/25 10:47:58;;;;;;;11.60;3.30;;;;;;;7.63;72.54;100777.47;105506;1258;73130;-54
2024/01/25 10:50:27;;;;;;;13.50;3.20;;;;;;;7.63;71.82;100776.59;105501;1251;69455;-53
2024/01/25 10:52:56;;;;;;;11.40;2.80;;;;;;;7.63;71.75;100780.23;105568;1256;69191;-56
2024/01/25 10:55:25;;;;;;;11.70;2.50;;;;;;;7.64;71.89;100785.80;105521;1251;180061;-53
2024/01/25 10:57:54;;;;;;;16.50;3.20;;;;;;;7.63;72.06;100795.02;105584;1251;82984;-56
2024/01/25 11:00:22;;;;;;;13.30;3.10;;;;;;;7.63;71.94;100800.60;105554;1255;71667;-55
2024/01/25 11:02:51;;;;;;;16.60;3.40;;;;;;;7.64;71.83;100807.20;105543;1251;69114;-55
2024/01/25 11:05:20;;;;;;;12.70;3.10;;;;;;;7.64;72.00;100804.40;105627;1257;69205;-52
2024/01/25 11:07:50;;;;;;;10.70;3.00;;;;;;;7.66;71.98;100801.41;105619;1255;73188;-50
2024/01/25 11:10:25;;;;;;;15.50;2.80;;;;;;;7.70;71.76;100803.77;105577;1258;81216;-49
2024/01/25 11:13:01;;;;;;;15.20;3.10;;;;;;;7.73;71.74;100798.14;105655;1251;72116;-52
2024/01/25 11:15:31;;;;;;;12.70;3.30;;;;;;;7.73;71.72;100795.02;105576;1256;69859;-49
2024/01/25 11:18:01;;;;;;;18.10;3.30;;;;;;;7.73;71.50;100805.63;105594;1251;69434;-51
2024/01/25 11:20:31;;;;;;;15.30;4.00;;;;;;;7.73;71.35;100804.06;105596;1255;73107;-49
2024/01/25 11:23:04;;;;;;;15.60;3.90;;;;;;;7.73;71.46;100799.52;105619;1255;81710;-51
2024/01/25 11:25:34;;;;;;;13.00;3.10;;;;;;;7.74;71.28;100801.95;105602;1252;72085;-48
2024/01/25 11:28:04;;;;;;;;;;;;;;;7.76;71.60;100803.29;105605;1257;69931;-51